createdAt,value
2019-02-07T00:00:23.613Z,25.13
2019-02-07T00:03:11.469Z,25.60
2019-02-07T00:05:59.041Z,27.40
2019-02-07T00:08:46.597Z,24.87
2019-02-07T00:11:34.252Z,26.83
2019-02-07T00:14:22.408Z,26.37
2019-02-07T00:17:10.256Z,24.57
2019-02-07T00:19:57.892Z,24.93
2019-02-07T00:22:45.729Z,26.60
2019-02-07T00:25:33.603Z,26.73
2019-02-07T00:28:21.384Z,26.80
2019-02-07T00:31:09.232Z,27.27
2019-02-07T00:33:57.393Z,26.67
2019-02-07T00:36:45.622Z,27.10
2019-02-07T00:39:33.541Z,31.37
2019-02-07T00:42:21.274Z,31.10
2019-02-07T00:45:11.981Z,29.60
2019-02-07T00:47:59.718Z,27.53
2019-02-07T00:50:47.984Z,27.67
2019-02-07T00:53:36.056Z,30.37
2019-02-07T00:56:23.805Z,31.07
2019-02-07T00:59:11.815Z,30.13
2019-02-07T01:01:59.937Z,31.47
2019-02-07T01:04:47.722Z,30.40
2019-02-07T01:07:35.668Z,28.57
2019-02-07T01:10:28.761Z,28.20
2019-02-07T01:13:16.408Z,28.37
2019-02-07T01:16:04.330Z,27.97
2019-02-07T01:18:52.020Z,27.93
2019-02-07T01:21:39.816Z,27.23
2019-02-07T01:24:27.724Z,27.63
2019-02-07T01:27:15.724Z,26.17
2019-02-07T01:30:05.667Z,27.90
2019-02-07T01:32:53.681Z,27.27
2019-02-07T01:35:41.327Z,29.57
2019-02-07T01:38:29.009Z,28.77
2019-02-07T01:41:16.707Z,28.73
2019-02-07T01:44:04.811Z,26.43
2019-02-07T01:46:52.540Z,27.13
2019-02-07T01:49:40.868Z,27.47
2019-02-07T01:52:28.550Z,26.67
2019-02-07T01:55:16.359Z,28.20
2019-02-07T01:58:04.578Z,28.60
2019-02-07T02:00:52.743Z,28.30
2019-02-07T02:03:40.333Z,27.13
2019-02-07T02:06:28.282Z,28.40
2019-02-07T02:09:16.285Z,27.10
2019-02-07T02:12:04.272Z,24.70
2019-02-07T02:14:51.941Z,27.17
2019-02-07T02:17:39.758Z,27.00
2019-02-07T02:20:27.624Z,25.23
2019-02-07T02:23:15.521Z,24.70
2019-02-07T02:26:03.367Z,24.77
2019-02-07T02:28:51.328Z,23.27
2019-02-07T02:31:39.220Z,23.63
2019-02-07T02:34:27.344Z,24.20
2019-02-07T02:37:15.060Z,22.73
2019-02-07T02:40:02.889Z,23.40
2019-02-07T02:42:50.570Z,22.93
2019-02-07T02:45:38.919Z,22.07
2019-02-07T02:48:26.661Z,22.33
2019-02-07T02:51:14.337Z,22.07
2019-02-07T02:54:02.600Z,23.57
2019-02-07T02:56:50.451Z,22.60
2019-02-07T02:59:38.058Z,22.50
2019-02-07T03:02:33.716Z,23.70
2019-02-07T03:05:31.929Z,22.50
2019-02-07T03:08:21.736Z,23.70
2019-02-07T03:11:11.036Z,23.93
2019-02-07T03:14:12.104Z,22.20
2019-02-07T03:17:08.330Z,23.13
2019-02-07T03:20:01.281Z,21.90
2019-02-07T03:23:03.262Z,23.17
2019-02-07T03:26:09.255Z,23.37
2019-02-07T03:29:11.025Z,23.00
2019-02-07T03:32:06.969Z,22.97
2019-02-07T03:35:12.963Z,23.47
2019-02-07T03:38:14.686Z,23.40
2019-02-07T03:41:13.149Z,24.23
2019-02-07T03:44:02.858Z,23.50
2019-02-07T03:47:10.654Z,23.97
2019-02-07T03:50:16.314Z,25.63
2019-02-07T03:53:22.332Z,26.03
2019-02-07T03:56:28.207Z,26.83
2019-02-07T03:59:35.977Z,25.97
2019-02-07T04:02:43.405Z,25.23
2019-02-07T04:05:51.214Z,25.33
2019-02-07T04:08:57.597Z,25.27
2019-02-07T04:11:55.850Z,23.30
2019-02-07T04:15:01.990Z,21.33
2019-02-07T04:17:52.149Z,21.90
2019-02-07T04:20:50.439Z,21.07
2019-02-07T04:23:40.467Z,21.03
2019-02-07T04:26:29.905Z,21.90
2019-02-07T04:29:22.790Z,20.40
2019-02-07T04:32:21.355Z,21.00
2019-02-07T04:35:16.765Z,20.67
2019-02-07T04:38:06.221Z,21.23
2019-02-07T04:40:58.892Z,21.27
2019-02-07T04:43:51.322Z,20.57
2019-02-07T04:46:57.030Z,20.57
2019-02-07T04:49:46.357Z,21.47
2019-02-07T04:52:48.476Z,22.53
2019-02-07T04:55:49.995Z,22.83
2019-02-07T04:58:48.459Z,21.57
2019-02-07T05:01:50.352Z,20.93
2019-02-07T05:04:39.823Z,20.40
2019-02-07T05:07:41.300Z,19.93
2019-02-07T05:10:45.449Z,20.03
2019-02-07T05:13:38.173Z,19.60
2019-02-07T05:16:43.732Z,21.70
2019-02-07T05:19:45.688Z,21.07
2019-02-07T05:22:34.966Z,20.93
2019-02-07T05:25:40.838Z,21.40
2019-02-07T05:28:46.777Z,20.63
2019-02-07T05:31:36.413Z,19.50
2019-02-07T05:34:35.381Z,19.87
2019-02-07T05:37:41.356Z,21.13
2019-02-07T05:40:37.406Z,21.93
2019-02-07T05:43:42.988Z,20.83
2019-02-07T05:46:32.486Z,21.80
2019-02-07T05:49:38.421Z,22.17
2019-02-07T05:52:44.241Z,21.67
2019-02-07T05:55:50.142Z,20.27
2019-02-07T05:58:48.593Z,22.60
2019-02-07T06:01:54.742Z,22.47
2019-02-07T06:04:44.559Z,24.10
2019-02-07T06:07:49.690Z,22.63
2019-02-07T06:10:39.414Z,23.47
2019-02-07T06:13:31.481Z,24.10
2019-02-07T06:16:21.511Z,23.50
2019-02-07T06:19:11.141Z,19.80
2019-02-07T06:22:09.583Z,20.63
2019-02-07T06:25:08.418Z,21.97
2019-02-07T06:28:00.058Z,22.07
2019-02-07T06:30:49.801Z,22.33
2019-02-07T06:33:42.613Z,22.20
2019-02-07T06:36:37.929Z,21.13
2019-02-07T06:39:28.556Z,23.23
2019-02-07T06:42:30.026Z,22.50
2019-02-07T06:45:37.881Z,23.50
2019-02-07T06:48:44.281Z,23.10
2019-02-07T06:51:33.895Z,22.10
2019-02-07T06:54:29.335Z,23.10
2019-02-07T06:57:22.207Z,23.00
2019-02-07T07:00:23.338Z,24.67
2019-02-07T07:03:25.883Z,23.60
2019-02-07T07:06:17.880Z,21.67
2019-02-07T07:09:18.041Z,23.90
2019-02-07T07:12:15.512Z,24.27
2019-02-07T07:15:09.027Z,23.63
2019-02-07T07:18:13.940Z,23.27
2019-02-07T07:21:11.990Z,24.87
2019-02-07T07:24:13.544Z,24.93
2019-02-07T07:27:19.873Z,23.00
2019-02-07T07:30:12.669Z,23.93
2019-02-07T07:33:08.270Z,23.60
2019-02-07T07:36:14.517Z,22.40
2019-02-07T07:39:09.897Z,23.07
2019-02-07T07:42:02.118Z,30.93
2019-02-07T07:44:51.827Z,26.60
2019-02-07T07:47:41.356Z,22.43
2019-02-07T07:50:49.345Z,21.97
2019-02-07T07:53:57.469Z,23.23
2019-02-07T07:57:02.142Z,21.47
2019-02-07T08:00:03.601Z,19.70
2019-02-07T08:03:09.952Z,20.13
2019-02-07T08:06:16.216Z,19.73
2019-02-07T08:09:17.989Z,19.00
2019-02-07T08:12:13.298Z,17.20
2019-02-07T08:15:05.249Z,15.87
2019-02-07T08:18:03.501Z,19.00
2019-02-07T08:21:09.541Z,17.37
2019-02-07T08:24:01.745Z,17.17
2019-02-07T08:26:55.021Z,16.77
2019-02-07T08:29:56.467Z,17.20
2019-02-07T08:32:48.641Z,15.53
2019-02-07T08:35:41.526Z,16.60
2019-02-07T08:38:33.835Z,16.20
2019-02-07T08:41:26.545Z,15.87
2019-02-07T08:44:16.327Z,17.00
2019-02-07T08:47:15.125Z,16.60
2019-02-07T08:50:04.778Z,17.37
2019-02-07T08:52:56.866Z,16.00
2019-02-07T08:55:55.943Z,15.43
2019-02-07T08:59:00.543Z,16.37
2019-02-07T09:01:53.110Z,16.50
2019-02-07T09:04:42.761Z,15.83
2019-02-07T09:07:35.476Z,15.97
2019-02-07T09:10:24.985Z,17.20
2019-02-07T09:13:14.269Z,16.00
2019-02-07T09:16:07.062Z,16.17
2019-02-07T09:19:06.081Z,16.27
2019-02-07T09:22:05.465Z,15.37
2019-02-07T09:24:54.893Z,15.87
2019-02-07T09:27:53.753Z,15.00
2019-02-07T09:30:49.614Z,15.67
2019-02-07T09:33:41.609Z,15.37
2019-02-07T09:36:34.190Z,16.03
2019-02-07T09:39:42.193Z,16.60
2019-02-07T09:42:34.349Z,20.73
2019-02-07T09:45:24.097Z,16.37
2019-02-07T09:48:29.571Z,16.43
2019-02-07T09:51:19.090Z,15.70
2019-02-07T09:54:09.056Z,16.23
2019-02-07T09:57:04.954Z,14.80
2019-02-07T10:00:03.273Z,16.23
2019-02-07T10:02:55.933Z,18.30
2019-02-07T10:06:02.297Z,17.50
2019-02-07T10:08:52.155Z,15.83
2019-02-07T10:11:57.681Z,17.53
2019-02-07T10:14:52.901Z,15.97
2019-02-07T10:17:48.481Z,16.10
2019-02-07T10:20:49.890Z,15.67
2019-02-07T10:23:54.370Z,16.13
2019-02-07T10:26:43.985Z,16.03
2019-02-07T10:29:36.453Z,16.20
2019-02-07T10:32:37.860Z,16.90
2019-02-07T10:35:44.472Z,17.50
2019-02-07T10:38:36.957Z,15.30
2019-02-07T10:41:32.789Z,15.33
2019-02-07T10:44:24.746Z,15.67
2019-02-07T10:47:30.571Z,15.53
2019-02-07T10:50:32.272Z,15.27
2019-02-07T10:53:37.177Z,16.40
2019-02-07T10:56:30.342Z,16.00
2019-02-07T10:59:20.371Z,15.10
2019-02-07T11:02:10.529Z,16.90
2019-02-07T11:05:03.072Z,15.33
2019-02-07T11:07:55.906Z,16.37
2019-02-07T11:10:45.369Z,15.93
2019-02-07T11:13:47.292Z,16.03
2019-02-07T11:16:42.773Z,14.80
2019-02-07T11:19:35.821Z,15.63
2019-02-07T11:22:28.940Z,16.33
2019-02-07T11:25:34.672Z,17.80
2019-02-07T11:28:24.230Z,16.57
2019-02-07T11:31:28.881Z,17.43
2019-02-07T11:34:30.701Z,16.40
2019-02-07T11:37:21.181Z,14.77
2019-02-07T11:40:31.488Z,15.33
2019-02-07T11:43:21.089Z,15.17
2019-02-07T11:46:13.533Z,14.90
2019-02-07T11:49:07.127Z,14.93
2019-02-07T11:52:15.146Z,16.57
2019-02-07T11:55:04.417Z,16.77
2019-02-07T11:58:09.873Z,15.63
2019-02-07T12:00:59.193Z,16.80
2019-02-07T12:04:07.273Z,15.67
2019-02-07T12:06:59.491Z,16.00
2019-02-07T12:09:51.816Z,15.20
2019-02-07T12:12:54.769Z,15.63
2019-02-07T12:15:59.153Z,15.37
2019-02-07T12:19:05.583Z,16.10
2019-02-07T12:22:04.254Z,16.70
2019-02-07T12:24:54.029Z,16.10
2019-02-07T12:27:53.182Z,15.67
2019-02-07T12:30:45.354Z,15.60
2019-02-07T12:33:35.157Z,16.57
2019-02-07T12:36:27.528Z,16.23
2019-02-07T12:39:23.365Z,14.67
2019-02-07T12:42:27.928Z,14.67
2019-02-07T12:45:20.407Z,16.53
2019-02-07T12:48:09.686Z,17.47
2019-02-07T12:51:08.020Z,15.73
2019-02-07T12:53:57.384Z,15.47
2019-02-07T12:57:03.673Z,15.77
2019-02-07T12:59:53.361Z,17.70
2019-02-07T13:02:45.651Z,17.47
2019-02-07T13:05:35.111Z,20.03
2019-02-07T13:08:33.673Z,16.67
2019-02-07T13:11:35.668Z,16.57
2019-02-07T13:14:28.052Z,16.03
2019-02-07T13:17:33.789Z,16.40
2019-02-07T13:20:23.539Z,16.77
2019-02-07T13:23:13.440Z,16.93
2019-02-07T13:26:05.745Z,16.87
2019-02-07T13:28:58.429Z,17.20
2019-02-07T13:32:05.883Z,15.53
2019-02-07T13:35:07.513Z,20.13
2019-02-07T13:37:57.462Z,17.97
2019-02-07T13:40:55.949Z,16.40
2019-02-07T13:43:54.554Z,16.70
2019-02-07T13:46:46.642Z,17.47
2019-02-07T13:49:38.542Z,16.63
2019-02-07T13:52:39.818Z,16.70
2019-02-07T13:55:29.049Z,16.57
2019-02-07T13:58:22.377Z,17.77
2019-02-07T14:01:17.810Z,17.03
2019-02-07T14:04:13.653Z,18.77
2019-02-07T14:07:19.351Z,16.90
2019-02-07T14:10:21.107Z,16.70
2019-02-07T14:13:11.021Z,16.53
2019-02-07T14:16:06.469Z,17.47
2019-02-07T14:19:04.761Z,17.73
2019-02-07T14:21:59.869Z,17.83
2019-02-07T14:25:07.509Z,17.97
2019-02-07T14:28:12.449Z,16.70
2019-02-07T14:31:06.313Z,16.87
2019-02-07T14:33:58.538Z,18.10
2019-02-07T14:37:06.205Z,18.47
2019-02-07T14:39:58.541Z,16.20
2019-02-07T14:42:54.030Z,19.87
2019-02-07T14:45:46.310Z,27.53
2019-02-07T14:48:34.369Z,17.77
2019-02-07T14:51:22.448Z,17.97
2019-02-07T14:54:10.441Z,18.70
2019-02-07T14:56:58.205Z,18.37
2019-02-07T14:59:46.481Z,19.03
2019-02-07T15:02:35.013Z,17.60
2019-02-07T15:05:22.729Z,18.57
2019-02-07T15:08:10.536Z,19.37
2019-02-07T15:10:58.171Z,19.03
2019-02-07T15:13:45.874Z,18.07
2019-02-07T15:16:33.821Z,19.90
2019-02-07T15:19:21.522Z,17.73
2019-02-07T15:22:09.958Z,18.33
2019-02-07T15:24:57.931Z,19.07
2019-02-07T15:27:45.554Z,19.03
2019-02-07T15:30:33.427Z,17.80
2019-02-07T15:33:21.183Z,18.37
2019-02-07T15:36:09.854Z,19.57
2019-02-07T15:38:57.466Z,18.37
2019-02-07T15:41:45.939Z,18.20
2019-02-07T15:44:33.872Z,18.53
2019-02-07T15:47:21.474Z,20.03
2019-02-07T15:50:37.705Z,17.90
2019-02-07T15:53:17.689Z,19.17
2019-02-07T15:56:05.786Z,18.83
2019-02-07T15:58:55.365Z,19.43
2019-02-07T16:01:45.230Z,20.87
2019-02-07T16:04:33.335Z,19.20
2019-02-07T16:07:21.424Z,20.40
2019-02-07T16:10:15.049Z,20.30
2019-02-07T16:13:03.002Z,19.90
2019-02-07T16:15:51.143Z,20.70
2019-02-07T16:18:41.825Z,21.23
2019-02-07T16:21:28.881Z,21.70
2019-02-07T16:24:16.456Z,20.20
2019-02-07T16:27:04.339Z,19.13
2019-02-07T16:29:52.298Z,19.90
2019-02-07T16:32:40.125Z,20.07
2019-02-07T16:35:27.810Z,20.47
2019-02-07T16:38:15.693Z,20.87
2019-02-07T16:41:03.714Z,20.60
2019-02-07T16:43:51.826Z,21.07
2019-02-07T16:46:39.518Z,22.30
2019-02-07T16:49:27.843Z,23.00
2019-02-07T16:52:15.973Z,23.47
2019-02-07T16:55:07.434Z,21.90
2019-02-07T16:57:55.228Z,23.23
2019-02-07T17:00:43.341Z,23.47
2019-02-07T17:03:30.981Z,25.57
2019-02-07T17:06:18.863Z,25.60
2019-02-07T17:09:09.630Z,25.50
2019-02-07T17:11:57.765Z,27.90
2019-02-07T17:14:45.649Z,29.10
2019-02-07T17:17:33.904Z,26.83
2019-02-07T17:20:24.710Z,26.10
2019-02-07T17:23:12.511Z,24.80
2019-02-07T17:26:00.058Z,25.63
2019-02-07T17:28:48.176Z,33.00
2019-02-07T17:31:35.881Z,27.67
2019-02-07T17:34:23.865Z,26.60
2019-02-07T17:37:11.825Z,26.03
2019-02-07T17:39:59.607Z,24.77
2019-02-07T17:42:47.709Z,24.20
2019-02-07T17:45:35.885Z,23.47
2019-02-07T17:48:24.193Z,23.77
2019-02-07T17:51:22.654Z,24.33
2019-02-07T17:54:01.409Z,24.40
2019-02-07T17:56:49.306Z,25.10
2019-02-07T17:59:37.571Z,25.47
2019-02-07T18:02:25.221Z,25.67
2019-02-07T18:05:13.005Z,24.17
2019-02-07T18:08:01.031Z,24.07
2019-02-07T18:10:49.550Z,26.93
2019-02-07T18:13:37.189Z,28.20
2019-02-07T18:16:24.966Z,27.97
2019-02-07T18:19:13.138Z,29.33
2019-02-07T18:22:00.889Z,28.43
2019-02-07T18:24:48.707Z,27.97
2019-02-07T18:27:36.338Z,27.47
2019-02-07T18:30:24.241Z,28.40
2019-02-07T18:33:12.050Z,31.00
2019-02-07T18:36:00.050Z,34.23
2019-02-07T18:38:48.055Z,35.33
2019-02-07T18:41:36.249Z,33.80
2019-02-07T18:44:24.166Z,33.73
2019-02-07T18:47:11.933Z,32.63
2019-02-07T18:49:59.809Z,32.60
2019-02-07T18:52:47.614Z,32.87
2019-02-07T18:55:35.422Z,33.40
2019-02-07T18:58:23.380Z,33.93
2019-02-07T19:01:11.269Z,33.53
2019-02-07T19:03:59.424Z,32.50
2019-02-07T19:06:47.377Z,31.80
2019-02-07T19:09:35.041Z,34.10
2019-02-07T19:12:22.858Z,35.13
2019-02-07T19:15:16.453Z,41.73
2019-02-07T19:18:04.747Z,39.63
2019-02-07T19:20:52.730Z,50.27
2019-02-07T19:23:40.736Z,43.47
2019-02-07T19:26:28.853Z,39.80
2019-02-07T19:29:16.426Z,36.67
2019-02-07T19:32:04.266Z,33.60
2019-02-07T19:34:51.961Z,29.63
2019-02-07T19:37:39.907Z,29.17
2019-02-07T19:40:28.065Z,29.50
2019-02-07T19:43:16.177Z,32.77
2019-02-07T19:46:04.187Z,35.10
2019-02-07T19:48:51.829Z,37.77
2019-02-07T19:51:39.856Z,34.33
2019-02-07T19:54:27.738Z,38.23
2019-02-07T19:57:15.383Z,32.97
2019-02-07T20:00:04.854Z,31.80
2019-02-07T20:02:53.233Z,32.80
2019-02-07T20:05:41.128Z,31.80
2019-02-07T20:08:28.727Z,30.53
2019-02-07T20:11:16.374Z,29.87
2019-02-07T20:14:04.651Z,26.00
2019-02-07T20:16:52.486Z,26.23
2019-02-07T20:19:40.178Z,25.37
2019-02-07T20:22:28.759Z,25.17
2019-02-07T20:25:19.005Z,23.80
2019-02-07T20:28:07.213Z,24.27
2019-02-07T20:30:55.179Z,25.07
2019-02-07T20:33:43.092Z,24.73
2019-02-07T20:36:30.721Z,28.33
2019-02-07T20:39:18.770Z,26.10
2019-02-07T20:42:06.811Z,26.30
2019-02-07T20:44:54.785Z,28.63
2019-02-07T20:47:42.716Z,29.17
2019-02-07T20:50:30.538Z,27.90
2019-02-07T20:53:17.967Z,27.90
2019-02-07T20:56:06.057Z,26.60
2019-02-07T20:58:54.023Z,25.70
2019-02-07T21:01:42.317Z,21.03
2019-02-07T21:04:30.152Z,18.10
2019-02-07T21:07:18.102Z,17.37
2019-02-07T21:10:09.166Z,20.27
2019-02-07T21:12:57.200Z,20.80
2019-02-07T21:15:45.632Z,22.13
2019-02-07T21:18:33.317Z,23.27
2019-02-07T21:21:21.081Z,22.33
2019-02-07T21:24:08.821Z,21.83
2019-02-07T21:26:56.954Z,20.40
2019-02-07T21:29:44.514Z,20.17
2019-02-07T21:32:32.461Z,20.67
2019-02-07T21:35:21.262Z,19.70
2019-02-07T21:38:09.437Z,17.80
2019-02-07T21:40:57.324Z,17.37
2019-02-07T21:43:45.238Z,16.83
2019-02-07T21:46:32.819Z,16.87
2019-02-07T21:49:20.830Z,17.27
2019-02-07T21:52:08.453Z,16.07
2019-02-07T21:54:56.091Z,16.70
2019-02-07T21:57:43.754Z,16.17
2019-02-07T22:00:36.506Z,14.33
2019-02-07T22:03:24.161Z,15.63
2019-02-07T22:06:12.002Z,14.57
2019-02-07T22:09:00.072Z,12.83
2019-02-07T22:11:47.541Z,14.97
2019-02-07T22:14:35.333Z,15.63
2019-02-07T22:17:23.150Z,15.17
2019-02-07T22:20:13.869Z,13.80
2019-02-07T22:23:01.906Z,15.40
2019-02-07T22:25:49.709Z,15.13
2019-02-07T22:28:37.733Z,16.30
2019-02-07T22:31:25.645Z,15.27
2019-02-07T22:34:13.761Z,14.17
2019-02-07T22:37:01.762Z,12.70
2019-02-07T22:39:49.717Z,11.53
2019-02-07T22:42:37.302Z,14.10
2019-02-07T22:45:26.084Z,11.13
2019-02-07T22:48:13.946Z,10.27
2019-02-07T22:51:01.593Z,6.67
2019-02-07T22:53:49.906Z,8.73
2019-02-07T22:56:45.049Z,6.70
2019-02-07T22:59:27.533Z,7.87
2019-02-07T23:02:15.435Z,5.77
2019-02-07T23:05:03.037Z,6.00
2019-02-07T23:07:50.810Z,8.87
2019-02-07T23:10:38.698Z,6.63
2019-02-07T23:13:26.909Z,6.07
2019-02-07T23:16:15.730Z,5.67
2019-02-07T23:19:06.320Z,5.57
2019-02-07T23:21:54.173Z,4.70
2019-02-07T23:24:42.174Z,4.67
2019-02-07T23:27:29.860Z,5.63
2019-02-07T23:30:19.292Z,5.20
2019-02-07T23:33:07.024Z,5.50
2019-02-07T23:35:54.641Z,5.33
2019-02-07T23:38:42.777Z,5.43
2019-02-07T23:41:30.513Z,5.77
2019-02-07T23:44:18.486Z,5.37
2019-02-07T23:47:06.370Z,6.20
2019-02-07T23:49:54.245Z,5.83
2019-02-07T23:52:42.245Z,6.07
2019-02-07T23:55:29.979Z,5.70
2019-02-07T23:58:18.034Z,7.00
